createdAt,value
2019-03-17T00:00:09.685Z,51.48
2019-03-17T00:02:40.002Z,51.40
2019-03-17T00:05:08.966Z,48.42
2019-03-17T00:07:38.082Z,51.77
2019-03-17T00:10:07.048Z,56.75
2019-03-17T00:12:35.992Z,52.15
2019-03-17T00:15:06.405Z,59.53
2019-03-17T00:17:37.072Z,53.38
2019-03-17T00:20:06.663Z,51.02
2019-03-17T00:22:35.348Z,48.92
2019-03-17T00:25:09.747Z,50.25
2019-03-17T00:27:35.243Z,52.65
2019-03-17T00:30:04.804Z,51.00
2019-03-17T00:32:33.737Z,55.52
2019-03-17T00:35:02.813Z,51.75
2019-03-17T00:37:31.490Z,56.15
2019-03-17T00:40:00.475Z,53.87
2019-03-17T00:42:30.146Z,52.15
2019-03-17T00:44:59.101Z,59.23
2019-03-17T00:47:28.277Z,56.05
2019-03-17T00:49:56.975Z,58.15
2019-03-17T00:52:25.836Z,61.30
2019-03-17T00:54:54.598Z,56.13
2019-03-17T00:57:23.531Z,57.38
2019-03-17T00:59:52.104Z,56.20
2019-03-17T01:02:20.906Z,58.10
2019-03-17T01:04:56.259Z,59.58
2019-03-17T01:07:20.244Z,56.80
2019-03-17T01:09:49.066Z,58.00
2019-03-17T01:12:17.787Z,61.25
2019-03-17T01:14:46.825Z,60.80
2019-03-17T01:17:15.661Z,58.08
2019-03-17T01:19:44.721Z,57.83
2019-03-17T01:22:13.826Z,60.40
2019-03-17T01:24:42.465Z,55.58
2019-03-17T01:27:11.324Z,60.43
2019-03-17T01:29:40.038Z,59.63
2019-03-17T01:32:08.969Z,58.80
2019-03-17T01:34:38.130Z,56.55
2019-03-17T01:37:07.270Z,56.95
2019-03-17T01:39:36.574Z,58.68
2019-03-17T01:42:05.613Z,60.30
2019-03-17T01:44:35.586Z,59.55
2019-03-17T01:47:04.549Z,53.75
2019-03-17T01:49:33.571Z,53.75
2019-03-17T01:52:02.229Z,48.55
2019-03-17T01:54:31.203Z,47.45
2019-03-17T01:56:59.976Z,48.00
2019-03-17T01:59:30.382Z,48.23
2019-03-17T02:01:59.182Z,41.75
2019-03-17T02:04:28.242Z,48.05
2019-03-17T02:06:57.194Z,48.38
2019-03-17T02:09:25.988Z,61.40
2019-03-17T02:11:55.389Z,76.70
2019-03-17T02:14:24.272Z,69.92
2019-03-17T02:16:53.124Z,78.42
2019-03-17T02:19:22.383Z,70.92
2019-03-17T02:21:51.272Z,77.55
2019-03-17T02:24:20.300Z,62.25
2019-03-17T02:26:50.383Z,66.17
2019-03-17T02:29:19.315Z,76.87
2019-03-17T02:31:48.254Z,67.90
2019-03-17T02:34:17.209Z,77.32
2019-03-17T02:36:45.806Z,71.40
2019-03-17T02:39:14.686Z,58.08
2019-03-17T02:41:43.578Z,55.63
2019-03-17T02:44:12.562Z,58.42
2019-03-17T02:46:41.401Z,58.25
2019-03-17T02:49:10.143Z,52.80
2019-03-17T02:51:38.994Z,48.52
2019-03-17T02:54:07.994Z,51.95
2019-03-17T02:56:36.709Z,51.45
2019-03-17T02:59:05.962Z,54.35
2019-03-17T03:01:34.793Z,47.40
2019-03-17T03:04:03.395Z,49.08
2019-03-17T03:06:32.445Z,47.62
2019-03-17T03:09:01.573Z,48.20
2019-03-17T03:11:31.849Z,48.60
2019-03-17T03:14:00.662Z,47.33
2019-03-17T03:16:29.527Z,47.43
2019-03-17T03:18:58.639Z,49.83
2019-03-17T03:21:27.522Z,45.95
2019-03-17T03:23:56.780Z,45.85
2019-03-17T03:26:25.865Z,46.25
2019-03-17T03:28:54.720Z,42.85
2019-03-17T03:31:23.672Z,44.15
2019-03-17T03:33:52.562Z,45.28
2019-03-17T03:36:21.529Z,44.18
2019-03-17T03:38:51.603Z,46.33
2019-03-17T03:41:20.339Z,43.15
2019-03-17T03:43:49.271Z,40.80
2019-03-17T03:46:18.081Z,39.40
2019-03-17T03:48:46.975Z,38.10
2019-03-17T03:51:15.652Z,43.15
2019-03-17T03:53:44.522Z,40.25
2019-03-17T03:56:13.445Z,40.83
2019-03-17T03:58:42.743Z,44.10
2019-03-17T04:01:11.448Z,44.88
2019-03-17T04:03:40.513Z,40.28
2019-03-17T04:06:25.266Z,39.63
2019-03-17T04:08:39.778Z,41.90
2019-03-17T04:11:08.794Z,34.60
2019-03-17T04:13:37.862Z,32.10
2019-03-17T04:16:06.634Z,32.67
2019-03-17T04:18:35.553Z,37.35
2019-03-17T04:21:04.256Z,38.28
2019-03-17T04:23:33.375Z,57.08
2019-03-17T04:26:02.505Z,47.58
2019-03-17T04:28:31.549Z,42.58
2019-03-17T04:31:00.818Z,36.45
2019-03-17T04:33:30.093Z,35.55
2019-03-17T04:35:59.013Z,31.00
2019-03-17T04:38:28.234Z,27.60
2019-03-17T04:40:57.188Z,40.12
2019-03-17T04:43:25.879Z,52.48
2019-03-17T04:45:55.045Z,37.73
2019-03-17T04:48:23.790Z,44.60
2019-03-17T04:50:52.654Z,50.85
2019-03-17T04:53:21.632Z,41.30
2019-03-17T04:55:50.784Z,45.10
2019-03-17T04:58:19.794Z,40.05
2019-03-17T05:00:48.843Z,44.80
2019-03-17T05:03:17.621Z,53.23
2019-03-17T05:05:46.811Z,45.03
2019-03-17T05:08:15.691Z,30.00
2019-03-17T05:10:44.472Z,26.33
2019-03-17T05:13:13.278Z,26.37
2019-03-17T05:15:42.317Z,30.23
2019-03-17T05:18:11.127Z,25.35
2019-03-17T05:20:40.161Z,21.35
2019-03-17T05:23:11.761Z,20.97
2019-03-17T05:25:40.693Z,20.27
2019-03-17T05:28:09.766Z,22.45
2019-03-17T05:30:38.897Z,18.37
2019-03-17T05:33:07.845Z,19.05
2019-03-17T05:35:36.636Z,20.97
2019-03-17T05:38:05.383Z,20.50
2019-03-17T05:40:34.132Z,19.55
2019-03-17T05:43:02.951Z,17.90
2019-03-17T05:45:31.561Z,18.67
2019-03-17T05:48:00.384Z,16.45
2019-03-17T05:50:29.205Z,18.62
2019-03-17T05:52:57.951Z,18.20
2019-03-17T05:55:27.094Z,13.55
2019-03-17T05:57:56.403Z,15.60
2019-03-17T06:00:25.230Z,15.83
2019-03-17T06:02:54.142Z,15.10
2019-03-17T06:05:22.896Z,16.07
2019-03-17T06:07:51.649Z,16.12
2019-03-17T06:10:20.305Z,16.40
2019-03-17T06:12:49.234Z,16.48
2019-03-17T06:15:18.082Z,14.20
2019-03-17T06:17:46.916Z,13.53
2019-03-17T06:20:16.764Z,14.07
2019-03-17T06:22:45.529Z,13.03
2019-03-17T06:25:14.772Z,13.50
2019-03-17T06:27:43.598Z,13.03
2019-03-17T06:30:13.139Z,13.50
2019-03-17T06:32:41.880Z,13.48
2019-03-17T06:35:11.693Z,14.05
2019-03-17T06:37:40.452Z,15.50
2019-03-17T06:40:10.654Z,12.58
2019-03-17T06:42:39.323Z,13.43
2019-03-17T06:45:08.984Z,13.18
2019-03-17T06:47:37.774Z,12.13
2019-03-17T06:50:10.931Z,10.08
2019-03-17T06:52:39.577Z,13.25
2019-03-17T06:55:09.984Z,12.58
2019-03-17T06:57:38.724Z,11.22
2019-03-17T07:00:11.156Z,10.32
2019-03-17T07:02:40.063Z,11.15
2019-03-17T07:05:09.329Z,10.78
2019-03-17T07:07:44.369Z,9.55
2019-03-17T07:10:10.079Z,13.65
2019-03-17T07:12:38.674Z,9.45
2019-03-17T07:15:08.759Z,9.40
2019-03-17T07:17:37.495Z,9.90
2019-03-17T07:20:08.241Z,10.35
2019-03-17T07:22:38.163Z,11.53
2019-03-17T07:25:08.432Z,9.15
2019-03-17T07:27:37.300Z,9.58
2019-03-17T07:30:15.422Z,8.33
2019-03-17T07:32:44.048Z,9.38
2019-03-17T07:35:12.886Z,7.47
2019-03-17T07:37:42.026Z,9.23
2019-03-17T07:40:11.526Z,8.55
2019-03-17T07:42:40.486Z,8.83
2019-03-17T07:45:09.964Z,7.35
2019-03-17T07:47:38.656Z,8.28
2019-03-17T07:50:11.475Z,7.55
2019-03-17T07:52:41.414Z,6.78
2019-03-17T07:55:10.844Z,7.72
2019-03-17T07:57:39.761Z,9.43
2019-03-17T08:00:09.932Z,7.28
2019-03-17T08:02:38.744Z,8.00
2019-03-17T08:05:08.317Z,9.48
2019-03-17T08:07:37.539Z,7.20
2019-03-17T08:10:08.983Z,8.53
2019-03-17T08:12:37.812Z,8.60
2019-03-17T08:15:08.351Z,8.83
2019-03-17T08:17:38.553Z,8.40
2019-03-17T08:20:08.651Z,6.83
2019-03-17T08:22:37.387Z,8.08
2019-03-17T08:25:07.285Z,8.48
2019-03-17T08:27:36.103Z,8.03
2019-03-17T08:30:06.604Z,7.35
2019-03-17T08:32:35.362Z,6.92
2019-03-17T08:35:05.694Z,7.58
2019-03-17T08:37:34.444Z,7.12
2019-03-17T08:40:03.453Z,6.53
2019-03-17T08:42:32.589Z,6.47
2019-03-17T08:45:01.685Z,6.53
2019-03-17T08:47:30.671Z,7.05
2019-03-17T08:49:59.910Z,6.83
2019-03-17T08:52:28.636Z,7.85
2019-03-17T08:54:57.573Z,7.70
2019-03-17T08:57:28.100Z,6.67
2019-03-17T08:59:56.647Z,5.30
2019-03-17T09:02:25.583Z,5.78
2019-03-17T09:04:54.470Z,6.25
2019-03-17T09:07:23.587Z,5.10
2019-03-17T09:09:52.304Z,5.20
2019-03-17T09:12:21.218Z,4.40
2019-03-17T09:14:50.282Z,5.85
2019-03-17T09:17:18.968Z,5.35
2019-03-17T09:19:47.971Z,7.45
2019-03-17T09:22:17.119Z,5.53
2019-03-17T09:24:45.861Z,5.12
2019-03-17T09:27:14.674Z,4.78
2019-03-17T09:29:43.540Z,5.22
2019-03-17T09:32:12.344Z,4.78
2019-03-17T09:34:41.093Z,5.35
2019-03-17T09:37:09.865Z,4.62
2019-03-17T09:39:38.494Z,6.83
2019-03-17T09:42:07.086Z,6.58
2019-03-17T09:44:37.752Z,5.22
2019-03-17T09:47:06.766Z,5.30
2019-03-17T09:49:35.721Z,6.47
2019-03-17T09:52:04.924Z,5.67
2019-03-17T09:54:33.874Z,6.33
2019-03-17T09:57:02.498Z,5.80
2019-03-17T09:59:31.429Z,5.95
2019-03-17T10:02:00.036Z,10.28
2019-03-17T10:04:29.084Z,6.35
2019-03-17T10:06:57.928Z,5.55
2019-03-17T10:09:26.932Z,7.70
2019-03-17T10:11:55.859Z,5.15
2019-03-17T10:14:24.702Z,4.90
2019-03-17T10:16:53.667Z,6.10
2019-03-17T10:19:22.610Z,7.12
2019-03-17T10:21:51.775Z,5.40
2019-03-17T10:24:20.495Z,6.87
2019-03-17T10:26:49.692Z,6.50
2019-03-17T10:29:18.363Z,6.85
2019-03-17T10:31:47.327Z,6.67
2019-03-17T10:34:17.481Z,6.00
2019-03-17T10:36:46.234Z,6.33
2019-03-17T10:39:14.857Z,7.15
2019-03-17T10:41:44.030Z,6.12
2019-03-17T10:44:13.038Z,6.55
2019-03-17T10:46:42.236Z,6.75
2019-03-17T10:49:11.346Z,5.28
2019-03-17T10:51:39.956Z,6.72
2019-03-17T10:54:09.171Z,7.45
2019-03-17T10:56:37.953Z,5.60
2019-03-17T10:59:06.917Z,6.05
2019-03-17T11:01:35.693Z,5.17
2019-03-17T11:04:04.894Z,6.10
2019-03-17T11:09:24.601Z,6.10
2019-03-17T11:11:46.305Z,4.55
2019-03-17T11:14:15.048Z,4.97
2019-03-17T11:16:43.847Z,4.67
2019-03-17T11:19:12.660Z,5.17
2019-03-17T11:21:41.525Z,5.12
2019-03-17T11:24:10.352Z,7.85
2019-03-17T11:26:39.303Z,7.20
2019-03-17T11:29:08.205Z,5.37
2019-03-17T11:31:37.272Z,5.05
2019-03-17T11:34:07.455Z,4.12
2019-03-17T11:36:36.485Z,5.12
2019-03-17T11:39:06.851Z,3.58
2019-03-17T11:41:35.577Z,6.80
2019-03-17T11:44:04.483Z,5.70
2019-03-17T11:46:33.567Z,3.62
2019-03-17T11:49:02.535Z,5.22
2019-03-17T11:51:31.217Z,5.95
2019-03-17T11:53:59.840Z,5.28
2019-03-17T11:56:28.690Z,4.55
2019-03-17T11:58:57.588Z,6.55
2019-03-17T12:01:26.850Z,3.98
2019-03-17T12:03:55.716Z,6.47
2019-03-17T12:06:24.469Z,4.90
2019-03-17T12:08:53.333Z,4.70
2019-03-17T12:11:22.560Z,5.78
2019-03-17T12:13:51.500Z,3.80
2019-03-17T12:16:20.081Z,4.37
2019-03-17T12:18:49.890Z,5.22
2019-03-17T12:21:18.589Z,7.15
2019-03-17T12:23:47.489Z,5.50
2019-03-17T12:26:16.295Z,3.62
2019-03-17T12:28:45.217Z,3.60
2019-03-17T12:31:14.254Z,4.10
2019-03-17T12:33:43.074Z,4.28
2019-03-17T12:36:11.681Z,4.20
2019-03-17T12:38:40.483Z,4.55
2019-03-17T12:41:09.074Z,4.83
2019-03-17T12:43:38.135Z,5.35
2019-03-17T12:46:06.828Z,5.55
2019-03-17T12:48:35.599Z,6.95
2019-03-17T12:51:05.246Z,33.00
2019-03-17T12:53:34.149Z,10.53
2019-03-17T12:56:03.119Z,10.82
2019-03-17T12:58:32.040Z,8.53
2019-03-17T13:01:00.754Z,13.95
2019-03-17T13:03:29.495Z,7.45
2019-03-17T13:05:58.442Z,42.95
2019-03-17T13:08:27.090Z,32.65
2019-03-17T13:10:55.774Z,6.65
2019-03-17T13:13:24.374Z,5.30
2019-03-17T13:15:53.074Z,16.00
2019-03-17T13:18:21.815Z,9.23
2019-03-17T13:20:50.649Z,5.55
2019-03-17T13:23:19.490Z,9.68
2019-03-17T13:25:51.142Z,4.87
2019-03-17T13:28:20.866Z,24.90
2019-03-17T13:30:49.821Z,35.70
2019-03-17T13:33:18.685Z,9.53
2019-03-17T13:35:47.601Z,4.83
2019-03-17T13:38:16.244Z,23.25
2019-03-17T13:40:44.914Z,4.12
2019-03-17T13:43:13.537Z,24.07
2019-03-17T13:45:42.317Z,6.12
2019-03-17T13:48:11.387Z,4.67
2019-03-17T13:50:40.335Z,4.25
2019-03-17T13:53:09.214Z,7.53
2019-03-17T13:55:37.794Z,5.47
2019-03-17T13:58:10.016Z,7.65
2019-03-17T14:00:38.958Z,16.60
2019-03-17T14:03:08.032Z,24.63
2019-03-17T14:05:36.938Z,11.12
2019-03-17T14:08:05.792Z,12.28
2019-03-17T14:10:40.926Z,24.77
2019-03-17T14:13:06.415Z,5.50
2019-03-17T14:15:35.329Z,23.25
2019-03-17T14:18:04.523Z,24.45
2019-03-17T14:20:33.331Z,4.47
2019-03-17T14:23:02.316Z,5.50
2019-03-17T14:25:31.886Z,62.33
2019-03-17T14:28:00.844Z,4.75
2019-03-17T14:30:29.783Z,3.90
2019-03-17T14:32:58.821Z,5.62
2019-03-17T14:35:27.534Z,6.60
2019-03-17T14:37:56.265Z,8.05
2019-03-17T14:40:25.302Z,24.30
2019-03-17T14:42:55.403Z,14.20
2019-03-17T14:45:24.823Z,5.53
2019-03-17T14:51:13.146Z,19.23
2019-03-17T14:53:47.712Z,77.90
2019-03-17T14:59:18.400Z,10.43
2019-03-17T15:01:47.329Z,28.57
2019-03-17T15:04:19.450Z,24.07
2019-03-17T15:06:51.100Z,23.67
2019-03-17T15:09:19.823Z,12.40
2019-03-17T15:11:50.260Z,6.67
2019-03-17T15:15:01.120Z,6.87
2019-03-17T15:17:24.959Z,9.13
2019-03-17T15:20:16.415Z,5.97
2019-03-17T15:22:50.214Z,7.28
2019-03-17T15:25:22.490Z,44.63
2019-03-17T15:27:57.429Z,37.15
2019-03-17T15:30:37.186Z,6.70
2019-03-17T15:33:25.981Z,21.62
2019-03-17T15:35:55.431Z,10.28
2019-03-17T15:38:31.329Z,14.93
2019-03-17T15:41:03.331Z,8.08
2019-03-17T15:43:37.504Z,11.30
2019-03-17T15:46:25.194Z,6.85
2019-03-17T15:52:02.628Z,9.70
2019-03-17T15:54:32.504Z,7.80
2019-03-17T15:57:05.056Z,9.70
2019-03-17T15:59:37.584Z,6.92
2019-03-17T16:02:15.149Z,6.62
2019-03-17T16:07:46.263Z,10.65
2019-03-17T16:10:24.901Z,9.43
2019-03-17T16:15:33.107Z,9.00
2019-03-17T16:18:16.093Z,8.13
2019-03-17T16:20:52.707Z,13.15
2019-03-17T16:23:27.424Z,10.25
2019-03-17T16:26:06.016Z,12.75
2019-03-17T16:28:35.033Z,15.85
2019-03-17T16:31:14.088Z,22.45
2019-03-17T16:33:48.700Z,13.98
2019-03-17T16:36:20.704Z,23.57
2019-03-17T16:38:53.884Z,16.27
2019-03-17T16:41:28.130Z,21.95
2019-03-17T16:43:57.268Z,13.22
2019-03-17T16:46:26.124Z,37.63
2019-03-17T16:48:54.985Z,34.38
2019-03-17T16:51:33.811Z,24.72
2019-03-17T16:54:03.131Z,17.20
2019-03-17T16:56:44.975Z,18.45
2019-03-17T16:59:05.083Z,17.50
2019-03-17T17:01:38.589Z,11.57
2019-03-17T17:04:07.552Z,13.55
2019-03-17T17:06:40.987Z,22.80
2019-03-17T17:09:11.231Z,18.60
2019-03-17T17:11:41.974Z,28.05
2019-03-17T17:14:10.918Z,42.88
2019-03-17T17:16:40.142Z,23.95
2019-03-17T17:19:09.111Z,11.38
2019-03-17T17:21:38.135Z,13.90
2019-03-17T17:24:07.069Z,11.90
2019-03-17T17:26:42.062Z,16.62
2019-03-17T17:29:13.976Z,40.67
2019-03-17T17:31:43.618Z,19.98
2019-03-17T17:34:12.602Z,9.93
2019-03-17T17:36:41.438Z,7.20
2019-03-17T17:39:10.555Z,14.70
2019-03-17T17:41:39.548Z,10.38
2019-03-17T17:44:08.488Z,21.45
2019-03-17T17:46:37.260Z,23.62
2019-03-17T17:49:06.367Z,22.15
2019-03-17T17:51:35.401Z,19.90
2019-03-17T17:54:06.876Z,16.97
2019-03-17T17:56:37.592Z,10.53
2019-03-17T17:59:06.851Z,13.68
2019-03-17T18:01:35.724Z,11.80
2019-03-17T18:04:04.544Z,10.53
2019-03-17T18:06:33.352Z,13.48
2019-03-17T18:09:02.233Z,17.12
2019-03-17T18:11:31.413Z,7.30
2019-03-17T18:14:00.434Z,8.15
2019-03-17T18:16:29.583Z,11.12
2019-03-17T18:19:00.080Z,11.83
2019-03-17T18:21:29.010Z,9.28
2019-03-17T18:23:57.716Z,11.40
2019-03-17T18:26:26.975Z,10.23
2019-03-17T18:28:55.910Z,9.73
2019-03-17T18:31:24.939Z,6.42
2019-03-17T18:33:53.632Z,4.62
2019-03-17T18:36:23.168Z,3.45
2019-03-17T18:38:53.126Z,5.00
2019-03-17T18:41:22.044Z,3.25
2019-03-17T18:43:50.937Z,2.33
2019-03-17T18:46:19.787Z,4.05
2019-03-17T18:48:51.741Z,3.67
2019-03-17T18:51:20.331Z,3.80
2019-03-17T18:53:49.132Z,3.90
2019-03-17T18:56:18.322Z,6.28
2019-03-17T18:58:47.311Z,4.75
2019-03-17T19:01:16.508Z,7.35
2019-03-17T19:03:45.614Z,9.00
2019-03-17T19:06:17.739Z,7.20
2019-03-17T19:08:48.171Z,9.38
2019-03-17T19:11:16.981Z,9.68
2019-03-17T19:13:47.307Z,7.62
2019-03-17T19:16:19.353Z,10.45
2019-03-17T19:18:48.162Z,12.40
2019-03-17T19:21:17.099Z,12.37
2019-03-17T19:23:45.986Z,9.93
2019-03-17T19:26:14.712Z,10.55
2019-03-17T19:28:43.598Z,13.68
2019-03-17T19:31:12.502Z,14.95
2019-03-17T19:33:41.370Z,13.75
2019-03-17T19:36:13.144Z,13.93
2019-03-17T19:38:43.488Z,11.30
2019-03-17T19:41:15.679Z,12.88
2019-03-17T19:43:45.894Z,9.20
2019-03-17T19:46:24.167Z,10.82
2019-03-17T19:48:53.134Z,15.80
2019-03-17T19:51:24.214Z,17.62
2019-03-17T19:53:55.850Z,25.77
2019-03-17T19:56:29.919Z,10.60
2019-03-17T19:59:04.605Z,7.47
2019-03-17T20:01:35.330Z,6.87
2019-03-17T20:04:07.195Z,5.90
2019-03-17T20:09:28.551Z,8.58
2019-03-17T20:12:06.999Z,10.48
2019-03-17T20:14:35.761Z,11.57
2019-03-17T20:17:04.503Z,13.45
2019-03-17T20:19:33.184Z,19.85
2019-03-17T20:22:02.286Z,177.32
2019-03-17T20:27:06.559Z,31.27
2019-03-17T20:29:35.326Z,12.85
2019-03-17T20:32:04.183Z,10.63
2019-03-17T20:34:35.557Z,7.70
2019-03-17T20:37:03.680Z,8.38
2019-03-17T20:39:37.097Z,20.60
2019-03-17T20:42:06.263Z,25.75
2019-03-17T20:44:35.065Z,14.90
2019-03-17T20:47:04.120Z,17.60
2019-03-17T20:49:34.482Z,33.40
2019-03-17T20:52:03.477Z,24.63
2019-03-17T20:54:33.886Z,15.35
2019-03-17T20:57:04.438Z,7.78
2019-03-17T20:59:33.373Z,10.15
2019-03-17T21:02:09.909Z,4.90
2019-03-17T21:05:00.904Z,2.90
2019-03-17T21:07:33.237Z,8.75
2019-03-17T21:10:02.183Z,22.52
2019-03-17T21:12:33.067Z,8.65
2019-03-17T21:15:03.060Z,8.58
2019-03-17T21:17:32.041Z,5.83
2019-03-17T21:20:04.441Z,11.10
2019-03-17T21:22:46.771Z,15.23
2019-03-17T21:25:32.735Z,11.88
2019-03-17T21:28:03.900Z,9.28
2019-03-17T21:30:36.271Z,14.15
2019-03-17T21:33:06.318Z,16.37
2019-03-17T21:35:36.860Z,14.23
2019-03-17T21:38:05.804Z,4.95
2019-03-17T21:41:01.686Z,5.50
2019-03-17T21:43:28.955Z,8.03
2019-03-17T21:45:55.063Z,8.08
2019-03-17T21:48:23.790Z,5.87
2019-03-17T21:50:52.564Z,4.92
2019-03-17T21:53:24.378Z,7.75
2019-03-17T21:55:54.294Z,6.78
2019-03-17T21:58:26.021Z,7.25
2019-03-17T22:01:02.160Z,8.65
2019-03-17T22:03:32.654Z,11.18
2019-03-17T22:06:03.452Z,10.15
2019-03-17T22:08:35.505Z,26.65
2019-03-17T22:13:35.893Z,23.47
2019-03-17T22:18:36.967Z,8.60
2019-03-17T22:21:07.533Z,12.63
2019-03-17T22:23:36.605Z,11.55
2019-03-17T22:26:05.873Z,9.68
2019-03-17T22:28:34.920Z,10.32
2019-03-17T22:31:04.007Z,11.00
2019-03-17T22:33:33.078Z,9.28
2019-03-17T22:36:03.975Z,12.07
2019-03-17T22:38:32.703Z,7.80
2019-03-17T22:41:01.753Z,11.28
2019-03-17T22:43:31.033Z,10.90
2019-03-17T22:45:59.855Z,12.47
2019-03-17T22:48:29.035Z,17.60
2019-03-17T22:50:57.990Z,16.85
2019-03-17T22:53:27.293Z,15.13
2019-03-17T22:55:56.350Z,14.75
2019-03-17T22:58:25.285Z,14.90
2019-03-17T23:00:54.622Z,19.37
2019-03-17T23:03:23.904Z,19.10
2019-03-17T23:05:54.123Z,13.30
2019-03-17T23:08:22.849Z,10.32
2019-03-17T23:10:52.029Z,15.03
2019-03-17T23:13:21.289Z,17.27
2019-03-17T23:15:50.998Z,19.17
2019-03-17T23:18:20.191Z,11.10
2019-03-17T23:20:49.467Z,17.52
2019-03-17T23:23:18.751Z,16.23
2019-03-17T23:25:47.653Z,14.65
2019-03-17T23:28:16.780Z,11.68
2019-03-17T23:30:46.242Z,73.25
2019-03-17T23:33:15.846Z,25.15
2019-03-17T23:35:44.824Z,12.18
2019-03-17T23:38:15.199Z,10.50
2019-03-17T23:40:44.318Z,10.10
2019-03-17T23:43:14.035Z,13.03
2019-03-17T23:45:43.361Z,12.75
2019-03-17T23:48:12.748Z,9.23
2019-03-17T23:50:41.905Z,17.37
2019-03-17T23:53:11.061Z,14.40
2019-03-17T23:55:40.150Z,11.93
2019-03-17T23:58:09.354Z,8.90
